Philadelphia, PA

6:21 PM EDT on August 04, 2015 (GMT -0400)
Philadelphia International | | Change Station
CLOSE
Current Station
Airport
Location: Philadelphia,
Elevation: 26 ft
Nearby Weather Stations

Elev 26 ft 39.87 °N, 75.23 °W | Updated 27 minutes ago

Partly Cloudy
Partly Cloudy
90 °F
Feels Like 88 °F
N
18
Wind Variable Wind from West

Today
High -- | Low -- °F
--% Chance of Precip.
Yesterday
High -- | Low -- °F
Precip. -- in
6:02 AM 8:11 PM
Waning Gibbous, 74% visible
Pressure 29.88 in
Visibility 10.0 miles
Clouds Few 7000 ft
Heat Index 88 °F
Dew Point 56 °F
Humidity 31%
Rainfall 0.01 in
Snow Depth Not available.
UV 2 out of 12
Pollen 7.30 out of 12
Air Quality Not available.
Flu Activity Not available.
METAR KPHL 042154Z 28016KT 10SM FEW070 32/13 A2988 RMK AO2 SLP118 T03220133

More Conditions Fewer Conditions

Pressure 29.88 in
Visibility 10.0 miles
Clouds Few 7000 ft
Heat Index 88 °F
Dew Point 56 °F
Humidity 31%
Rainfall 0.01 in
Snow Depth Not available.
UV 2 out of 12
Pollen 7.30 out of 12
Air Quality Not available.
Flu Activity Not available.
METAR KPHL 042154Z 28016KT 10SM FEW070 32/13 A2988 RMK AO2 SLP118 T03220133

More Conditions Fewer Conditions

10-Day Weather Forecast

×

Almanac

Astronomy

Aug. 04, 2015 Rise Set
Actual Time
Civil Twilight
Nautical Twilight
Astronomical Twilight
Moon
Length of Visible Light
Length of Day
Tomorrow will be .
, % of the Moon is Illuminated

Today's Extremes

State Highs State Lows

Community

WunderPhotos

Upload Photos

1,844,007 photos uploaded!

WunderBlogs® & News

Nearby

Air Quality

  Air Quality AQ Index Pollutant
Not available.

Snow Depth

Station Depth Elevation

Earthquake Activity

City Distance Mag. Time & Date
Minimum magnitude displayed is 2.5.

Coastal Water Temperatures

Place Temperature

Stations

Nearby Weather Stations

Station Location Temp. Windchill Dew Point Humidity Wind Precip. Elev Updated Type